sensor_id;sensor_type;location;lat;lon;timestamp;pressure;altitude;pressure_sealevel;temperature;humidity
64053;BME280;50299;49.524;8.536;2023-05-02T00:00:52;100628.44;;;12.54;60.28
64053;BME280;50299;49.524;8.536;2023-05-02T00:03:18;100624.84;;;12.54;63.26
64053;BME280;50299;49.524;8.536;2023-05-02T00:05:47;100626.53;;;12.46;61.63
64053;BME280;50299;49.524;8.536;2023-05-02T00:08:13;100627.94;;;12.31;55.65
64053;BME280;50299;49.524;8.536;2023-05-02T00:10:41;100624.72;;;12.00;56.39
64053;BME280;50299;49.524;8.536;2023-05-02T00:13:07;100621.84;;;11.88;58.39
64053;BME280;50299;49.524;8.536;2023-05-02T00:15:34;100623.59;;;11.54;54.43
64053;BME280;50299;49.524;8.536;2023-05-02T00:18:00;100623.00;;;11.40;59.10
64053;BME280;50299;49.524;8.536;2023-05-02T00:20:27;100624.09;;;11.47;59.77
64053;BME280;50299;49.524;8.536;2023-05-02T00:22:54;100624.78;;;11.44;56.74
64053;BME280;50299;49.524;8.536;2023-05-02T00:25:22;100623.22;;;11.17;55.80
64053;BME280;50299;49.524;8.536;2023-05-02T00:27:48;100620.97;;;11.02;58.60
64053;BME280;50299;49.524;8.536;2023-05-02T00:30:16;100624.41;;;10.99;58.99
64053;BME280;50299;49.524;8.536;2023-05-02T00:32:43;100629.13;;;10.98;56.65
64053;BME280;50299;49.524;8.536;2023-05-02T00:35:10;100633.00;;;10.71;58.30
64053;BME280;50299;49.524;8.536;2023-05-02T00:37:36;100634.94;;;10.36;58.46
64053;BME280;50299;49.524;8.536;2023-05-02T00:40:03;100641.13;;;10.42;60.76
64053;BME280;50299;49.524;8.536;2023-05-02T00:42:32;100637.03;;;10.22;59.93
64053;BME280;50299;49.524;8.536;2023-05-02T00:44:59;100637.69;;;10.36;62.08
64053;BME280;50299;49.524;8.536;2023-05-02T00:47:29;100629.91;;;10.55;63.72
64053;BME280;50299;49.524;8.536;2023-05-02T00:49:55;100638.38;;;10.59;62.44
64053;BME280;50299;49.524;8.536;2023-05-02T00:52:22;100632.03;;;10.58;62.96
64053;BME280;50299;49.524;8.536;2023-05-02T00:54:48;100639.53;;;10.58;59.88
64053;BME280;50299;49.524;8.536;2023-05-02T00:57:17;100632.03;;;10.58;60.76
64053;BME280;50299;49.524;8.536;2023-05-02T00:59:46;100632.38;;;10.57;61.43
64053;BME280;50299;49.524;8.536;2023-05-02T01:02:39;100638.03;;;10.60;57.35
64053;BME280;50299;49.524;8.536;2023-05-02T01:05:20;100638.53;;;10.71;61.25
64053;BME280;50299;49.524;8.536;2023-05-02T01:07:53;100639.53;;;10.75;61.24
64053;BME280;50299;49.524;8.536;2023-05-02T01:11:02;100635.31;;;10.78;60.14
64053;BME280;50299;49.524;8.536;2023-05-02T01:13:33;100638.38;;;10.85;61.63
64053;BME280;50299;49.524;8.536;2023-05-02T01:16:02;100646.84;;;10.89;60.71
64053;BME280;50299;49.524;8.536;2023-05-02T01:18:35;100645.41;;;10.91;59.62
64053;BME280;50299;49.524;8.536;2023-05-02T01:21:06;100649.78;;;10.92;62.40
64053;BME280;50299;49.524;8.536;2023-05-02T01:29:10;100655.16;;;10.89;59.60
64053;BME280;50299;49.524;8.536;2023-05-02T01:31:41;100656.13;;;10.75;57.08
64053;BME280;50299;49.524;8.536;2023-05-02T01:34:10;100667.00;;;10.54;56.54
64053;BME280;50299;49.524;8.536;2023-05-02T01:36:47;100671.53;;;10.42;56.67
64053;BME280;50299;49.524;8.536;2023-05-02T01:39:18;100665.19;;;10.32;56.01
64053;BME280;50299;49.524;8.536;2023-05-02T01:41:50;100663.22;;;10.24;57.52
64053;BME280;50299;49.524;8.536;2023-05-02T01:44:19;100668.69;;;10.16;61.73
64053;BME280;50299;49.524;8.536;2023-05-02T01:46:47;100667.22;;;10.01;57.59
64053;BME280;50299;49.524;8.536;2023-05-02T01:49:15;100668.91;;;9.79;57.59
64053;BME280;50299;49.524;8.536;2023-05-02T01:51:48;100683.09;;;9.64;57.84
64053;BME280;50299;49.524;8.536;2023-05-02T01:54:17;100682.91;;;9.60;57.87
64053;BME280;50299;49.524;8.536;2023-05-02T01:56:45;100690.38;;;9.60;58.41
64053;BME280;50299;49.524;8.536;2023-05-02T01:59:15;100697.03;;;9.59;58.77
64053;BME280;50299;49.524;8.536;2023-05-02T02:01:43;100704.81;;;9.57;58.54
64053;BME280;50299;49.524;8.536;2023-05-02T02:04:12;100698.28;;;9.53;58.15
64053;BME280;50299;49.524;8.536;2023-05-02T02:06:41;100698.28;;;9.53;58.78
64053;BME280;50299;49.524;8.536;2023-05-02T02:09:09;100709.94;;;9.50;62.59
64053;BME280;50299;49.524;8.536;2023-05-02T02:14:47;100716.56;;;9.40;59.88
64053;BME280;50299;49.524;8.536;2023-05-02T02:17:22;100722.69;;;9.37;59.12
64053;BME280;50299;49.524;8.536;2023-05-02T02:19:52;100721.25;;;9.40;60.34
64053;BME280;50299;49.524;8.536;2023-05-02T02:22:20;100730.50;;;9.35;60.76
64053;BME280;50299;49.524;8.536;2023-05-02T02:24:48;100720.41;;;9.30;59.22
64053;BME280;50299;49.524;8.536;2023-05-02T02:27:19;100728.91;;;9.20;59.77
64053;BME280;50299;49.524;8.536;2023-05-02T02:29:46;100738.66;;;9.18;58.80
64053;BME280;50299;49.524;8.536;2023-05-02T02:32:12;100737.13;;;9.11;61.42
64053;BME280;50299;49.524;8.536;2023-05-02T02:34:39;100735.63;;;9.05;58.38
64053;BME280;50299;49.524;8.536;2023-05-02T02:37:17;100742.50;;;8.94;58.98
64053;BME280;50299;49.524;8.536;2023-05-02T02:39:53;100735.09;;;9.03;59.51
64053;BME280;50299;49.524;8.536;2023-05-02T02:42:26;100740.28;;;9.19;60.77
64053;BME280;50299;49.524;8.536;2023-05-02T02:47:55;100749.72;;;9.49;60.34
64053;BME280;50299;49.524;8.536;2023-05-02T02:50:39;100743.31;;;9.62;60.42
64053;BME280;50299;49.524;8.536;2023-05-02T02:53:14;100740.75;;;9.66;59.71
64053;BME280;50299;49.524;8.536;2023-05-02T02:56:04;100747.72;;;9.63;58.00
64053;BME280;50299;49.524;8.536;2023-05-02T03:01:19;100747.44;;;9.42;58.10
64053;BME280;50299;49.524;8.536;2023-05-02T03:03:47;100751.72;;;9.12;56.65
64053;BME280;50299;49.524;8.536;2023-05-02T03:06:16;100745.91;;;8.77;58.69
64053;BME280;50299;49.524;8.536;2023-05-02T03:08:43;100752.03;;;8.60;59.31
64053;BME280;50299;49.524;8.536;2023-05-02T03:11:10;100755.81;;;8.51;59.39
64053;BME280;50299;49.524;8.536;2023-05-02T03:13:36;100760.72;;;8.40;62.00
64053;BME280;50299;49.524;8.536;2023-05-02T03:16:36;100750.63;;;8.49;60.65
64053;BME280;50299;49.524;8.536;2023-05-02T03:19:03;100760.09;;;8.57;58.98
64053;BME280;50299;49.524;8.536;2023-05-02T03:21:30;100763.34;;;8.59;60.53
64053;BME280;50299;49.524;8.536;2023-05-02T03:24:00;100774.38;;;8.59;59.38
64053;BME280;50299;49.524;8.536;2023-05-02T03:26:27;100773.06;;;8.56;57.82
64053;BME280;50299;49.524;8.536;2023-05-02T03:28:56;100769.09;;;8.35;60.20
64053;BME280;50299;49.524;8.536;2023-05-02T03:31:23;100784.41;;;8.41;61.60
64053;BME280;50299;49.524;8.536;2023-05-02T03:33:52;100779.81;;;8.36;60.00
64053;BME280;50299;49.524;8.536;2023-05-02T03:36:19;100787.88;;;8.33;60.92
64053;BME280;50299;49.524;8.536;2023-05-02T03:38:45;100781.75;;;8.50;62.57
64053;BME280;50299;49.524;8.536;2023-05-02T03:41:12;100781.13;;;8.67;62.57
64053;BME280;50299;49.524;8.536;2023-05-02T03:43:38;100790.22;;;8.81;61.25
64053;BME280;50299;49.524;8.536;2023-05-02T03:46:06;100793.88;;;8.90;61.64
64053;BME280;50299;49.524;8.536;2023-05-02T03:48:33;100799.47;;;8.99;62.35
64053;BME280;50299;49.524;8.536;2023-05-02T03:51:01;100804.78;;;9.09;59.24
64053;BME280;50299;49.524;8.536;2023-05-02T03:53:31;100803.13;;;9.08;58.88
64053;BME280;50299;49.524;8.536;2023-05-02T03:55:57;100805.31;;;8.97;58.66
64053;BME280;50299;49.524;8.536;2023-05-02T03:58:24;100812.97;;;8.86;59.34
64053;BME280;50299;49.524;8.536;2023-05-02T04:00:50;100812.28;;;8.81;59.49
64053;BME280;50299;49.524;8.536;2023-05-02T04:03:19;100814.41;;;8.70;58.04
64053;BME280;50299;49.524;8.536;2023-05-02T04:05:48;100816.63;;;8.54;56.58
64053;BME280;50299;49.524;8.536;2023-05-02T04:08:17;100822.53;;;8.34;58.78
64053;BME280;50299;49.524;8.536;2023-05-02T04:10:44;100827.03;;;8.30;59.48
64053;BME280;50299;49.524;8.536;2023-05-02T04:13:13;100828.16;;;8.29;58.47
64053;BME280;50299;49.524;8.536;2023-05-02T04:15:44;100824.69;;;8.37;61.78
64053;BME280;50299;49.524;8.536;2023-05-02T04:18:11;100842.78;;;8.57;62.38
64053;BME280;50299;49.524;8.536;2023-05-02T04:20:44;100841.50;;;8.68;62.53
64053;BME280;50299;49.524;8.536;2023-05-02T04:23:11;100851.88;;;8.71;59.51
64053;BME280;50299;49.524;8.536;2023-05-02T04:25:39;100848.94;;;8.68;60.52
64053;BME280;50299;49.524;8.536;2023-05-02T04:28:15;100857.91;;;8.73;60.74
64053;BME280;50299;49.524;8.536;2023-05-02T04:30:47;100859.94;;;8.81;61.40
64053;BME280;50299;49.524;8.536;2023-05-02T04:33:16;100860.97;;;8.85;61.84
64053;BME280;50299;49.524;8.536;2023-05-02T04:35:43;100860.94;;;8.99;63.71
64053;BME280;50299;49.524;8.536;2023-05-02T04:38:13;100865.00;;;9.16;63.29
64053;BME280;50299;49.524;8.536;2023-05-02T04:40:45;100870.22;;;9.17;60.26
64053;BME280;50299;49.524;8.536;2023-05-02T04:43:12;100872.78;;;9.13;60.17
64053;BME280;50299;49.524;8.536;2023-05-02T04:45:43;100876.97;;;9.11;60.22
64053;BME280;50299;49.524;8.536;2023-05-02T04:48:09;100880.03;;;9.09;60.17
64053;BME280;50299;49.524;8.536;2023-05-02T04:50:36;100877.97;;;9.15;60.96
64053;BME280;50299;49.524;8.536;2023-05-02T04:53:09;100888.09;;;9.20;59.49
64053;BME280;50299;49.524;8.536;2023-05-02T04:55:40;100884.50;;;9.19;60.68
64053;BME280;50299;49.524;8.536;2023-05-02T04:58:15;100886.41;;;9.32;62.24
64053;BME280;50299;49.524;8.536;2023-05-02T05:00:47;100888.03;;;9.47;62.53
64053;BME280;50299;49.524;8.536;2023-05-02T05:03:19;100891.34;;;9.58;61.43
64053;BME280;50299;49.524;8.536;2023-05-02T05:06:02;100904.94;;;9.68;62.79
64053;BME280;50299;49.524;8.536;2023-05-02T05:08:34;100911.75;;;9.84;62.23
64053;BME280;50299;49.524;8.536;2023-05-02T05:11:15;100909.72;;;9.99;62.92
64053;BME280;50299;49.524;8.536;2023-05-02T05:14:12;100917.41;;;10.24;61.30
64053;BME280;50299;49.524;8.536;2023-05-02T05:16:45;100916.22;;;10.48;64.04
64053;BME280;50299;49.524;8.536;2023-05-02T05:22:49;100923.44;;;10.89;61.13
64053;BME280;50299;49.524;8.536;2023-05-02T05:25:26;100934.25;;;11.07;64.64
64053;BME280;50299;49.524;8.536;2023-05-02T05:27:59;100938.19;;;11.24;64.53
64053;BME280;50299;49.524;8.536;2023-05-02T05:30:35;100949.94;;;11.38;63.97
64053;BME280;50299;49.524;8.536;2023-05-02T05:33:12;100954.84;;;11.50;63.38
64053;BME280;50299;49.524;8.536;2023-05-02T05:35:41;100961.53;;;11.57;63.55
64053;BME280;50299;49.524;8.536;2023-05-02T05:38:49;100958.78;;;11.57;60.61
64053;BME280;50299;49.524;8.536;2023-05-02T05:41:45;100964.19;;;11.71;64.19
64053;BME280;50299;49.524;8.536;2023-05-02T05:48:05;100978.78;;;11.54;61.48
64053;BME280;50299;49.524;8.536;2023-05-02T05:50:38;100983.50;;;11.54;54.56
64053;BME280;50299;49.524;8.536;2023-05-02T05:53:18;100978.44;;;11.47;58.92
64053;BME280;50299;49.524;8.536;2023-05-02T05:55:45;100971.78;;;11.48;58.06
64053;BME280;50299;49.524;8.536;2023-05-02T05:58:14;100979.78;;;11.58;62.67
64053;BME280;50299;49.524;8.536;2023-05-02T06:00:40;100976.91;;;11.72;64.23
64053;BME280;50299;49.524;8.536;2023-05-02T06:03:10;100983.09;;;11.87;64.00
64053;BME280;50299;49.524;8.536;2023-05-02T06:05:37;100984.25;;;11.94;65.88
64053;BME280;50299;49.524;8.536;2023-05-02T06:08:03;100992.09;;;12.09;66.11
64053;BME280;50299;49.524;8.536;2023-05-02T06:10:30;100994.03;;;12.18;66.09
64053;BME280;50299;49.524;8.536;2023-05-02T06:13:02;100995.50;;;12.24;62.71
64053;BME280;50299;49.524;8.536;2023-05-02T06:15:28;100994.03;;;12.26;61.40
64053;BME280;50299;49.524;8.536;2023-05-02T06:17:58;101001.19;;;11.84;59.71
64053;BME280;50299;49.524;8.536;2023-05-02T06:20:25;101003.63;;;11.77;63.36
64053;BME280;50299;49.524;8.536;2023-05-02T06:23:01;101009.19;;;11.86;62.42
64053;BME280;50299;49.524;8.536;2023-05-02T06:25:28;101008.38;;;11.94;58.54
64053;BME280;50299;49.524;8.536;2023-05-02T06:27:55;100998.44;;;12.01;63.99
64053;BME280;50299;49.524;8.536;2023-05-02T06:30:21;100997.94;;;12.17;65.98
64053;BME280;50299;49.524;8.536;2023-05-02T06:32:48;101011.28;;;12.32;65.32
64053;BME280;50299;49.524;8.536;2023-05-02T06:35:14;101013.59;;;12.39;59.88
64053;BME280;50299;49.524;8.536;2023-05-02T06:37:44;101023.69;;;12.43;65.08
64053;BME280;50299;49.524;8.536;2023-05-02T06:40:13;101025.63;;;12.51;66.50
64053;BME280;50299;49.524;8.536;2023-05-02T06:42:53;101026.16;;;12.19;60.39
64053;BME280;50299;49.524;8.536;2023-05-02T06:45:22;101028.25;;;12.13;63.47
64053;BME280;50299;49.524;8.536;2023-05-02T06:47:51;101028.41;;;12.25;61.01
64053;BME280;50299;49.524;8.536;2023-05-02T06:50:18;101031.50;;;12.32;62.17
64053;BME280;50299;49.524;8.536;2023-05-02T06:52:51;101035.59;;;12.35;61.28
64053;BME280;50299;49.524;8.536;2023-05-02T06:55:18;101043.41;;;12.42;58.38
64053;BME280;50299;49.524;8.536;2023-05-02T06:57:48;101044.88;;;12.48;58.98
64053;BME280;50299;49.524;8.536;2023-05-02T07:00:21;101047.66;;;12.56;63.28
64053;BME280;50299;49.524;8.536;2023-05-02T07:02:50;101053.53;;;12.72;61.78
64053;BME280;50299;49.524;8.536;2023-05-02T07:05:16;101048.44;;;12.74;58.38
64053;BME280;50299;49.524;8.536;2023-05-02T07:07:49;101056.28;;;12.81;62.40
64053;BME280;50299;49.524;8.536;2023-05-02T07:10:23;101048.78;;;12.81;58.43
64053;BME280;50299;49.524;8.536;2023-05-02T07:12:50;101054.78;;;12.92;63.95
64053;BME280;50299;49.524;8.536;2023-05-02T07:15:17;101048.69;;;13.16;62.34
64053;BME280;50299;49.524;8.536;2023-05-02T07:17:43;101055.59;;;13.40;67.59
64053;BME280;50299;49.524;8.536;2023-05-02T07:20:15;101050.25;;;13.64;62.01
64053;BME280;50299;49.524;8.536;2023-05-02T07:22:44;101044.94;;;13.80;62.43
64053;BME280;50299;49.524;8.536;2023-05-02T07:25:12;101051.66;;;13.79;58.07
64053;BME280;50299;49.524;8.536;2023-05-02T07:27:39;101045.94;;;13.75;60.27
64053;BME280;50299;49.524;8.536;2023-05-02T07:30:08;101056.88;;;14.01;62.29
64053;BME280;50299;49.524;8.536;2023-05-02T07:32:35;101051.53;;;13.96;56.07
64053;BME280;50299;49.524;8.536;2023-05-02T07:35:01;101054.03;;;14.10;65.63
64053;BME280;50299;49.524;8.536;2023-05-02T07:37:32;101049.03;;;14.24;56.26
64053;BME280;50299;49.524;8.536;2023-05-02T07:40:04;101050.97;;;14.33;52.80
64053;BME280;50299;49.524;8.536;2023-05-02T07:42:32;101054.34;;;14.38;52.81
64053;BME280;50299;49.524;8.536;2023-05-02T07:45:02;101038.38;;;14.47;59.79
64053;BME280;50299;49.524;8.536;2023-05-02T07:47:34;101045.03;;;14.55;60.86
64053;BME280;50299;49.524;8.536;2023-05-02T07:50:01;101053.22;;;14.30;58.64
64053;BME280;50299;49.524;8.536;2023-05-02T07:52:58;101051.28;;;14.52;51.77
64053;BME280;50299;49.524;8.536;2023-05-02T07:55:28;101052.50;;;14.21;51.41
64053;BME280;50299;49.524;8.536;2023-05-02T07:58:00;101055.09;;;13.76;51.76
64053;BME280;50299;49.524;8.536;2023-05-02T08:00:30;101061.63;;;14.01;54.94
64053;BME280;50299;49.524;8.536;2023-05-02T08:03:00;101056.06;;;13.80;50.59
64053;BME280;50299;49.524;8.536;2023-05-02T08:05:29;101067.44;;;13.66;57.06
64053;BME280;50299;49.524;8.536;2023-05-02T08:07:56;101065.63;;;13.23;50.50
64053;BME280;50299;49.524;8.536;2023-05-02T08:10:22;101070.00;;;12.69;52.65
64053;BME280;50299;49.524;8.536;2023-05-02T08:12:52;101068.22;;;13.20;52.63
64053;BME280;50299;49.524;8.536;2023-05-02T08:15:19;101072.09;;;13.36;55.41
64053;BME280;50299;49.524;8.536;2023-05-02T08:17:46;101075.72;;;13.75;56.32
64053;BME280;50299;49.524;8.536;2023-05-02T08:20:14;101077.66;;;14.04;57.62
64053;BME280;50299;49.524;8.536;2023-05-02T08:22:45;101082.25;;;14.21;56.99
64053;BME280;50299;49.524;8.536;2023-05-02T08:25:14;101078.97;;;13.98;53.54
64053;BME280;50299;49.524;8.536;2023-05-02T08:27:42;101091.03;;;13.81;53.89
64053;BME280;50299;49.524;8.536;2023-05-02T08:30:13;101086.50;;;13.29;54.88
64053;BME280;50299;49.524;8.536;2023-05-02T08:32:49;101081.81;;;13.21;52.66
64053;BME280;50299;49.524;8.536;2023-05-02T08:35:16;101089.56;;;13.37;55.85
64053;BME280;50299;49.524;8.536;2023-05-02T08:37:50;101089.72;;;13.40;51.28
64053;BME280;50299;49.524;8.536;2023-05-02T08:40:19;101089.25;;;13.38;51.44
64053;BME280;50299;49.524;8.536;2023-05-02T08:43:06;101094.16;;;13.41;52.26
64053;BME280;50299;49.524;8.536;2023-05-02T08:45:41;101101.41;;;13.16;51.91
64053;BME280;50299;49.524;8.536;2023-05-02T08:48:10;101101.97;;;13.39;57.26
64053;BME280;50299;49.524;8.536;2023-05-02T08:50:38;101101.06;;;13.26;53.15
64053;BME280;50299;49.524;8.536;2023-05-02T08:53:06;101102.88;;;13.14;55.42
64053;BME280;50299;49.524;8.536;2023-05-02T08:55:36;101103.81;;;13.26;51.22
64053;BME280;50299;49.524;8.536;2023-05-02T08:58:07;101108.91;;;13.24;52.77
64053;BME280;50299;49.524;8.536;2023-05-02T09:00:38;101108.28;;;13.66;55.30
64053;BME280;50299;49.524;8.536;2023-05-02T09:03:20;101116.66;;;13.48;51.30
64053;BME280;50299;49.524;8.536;2023-05-02T09:06:04;101122.44;;;13.73;55.79
64053;BME280;50299;49.524;8.536;2023-05-02T09:08:34;101110.00;;;13.49;56.31
64053;BME280;50299;49.524;8.536;2023-05-02T09:11:06;101121.22;;;13.53;47.00
64053;BME280;50299;49.524;8.536;2023-05-02T09:13:37;101123.84;;;13.58;54.28
64053;BME280;50299;49.524;8.536;2023-05-02T09:16:17;101130.41;;;13.83;51.74
64053;BME280;50299;49.524;8.536;2023-05-02T09:19:10;101132.84;;;13.55;51.80
64053;BME280;50299;49.524;8.536;2023-05-02T09:21:48;101134.56;;;13.68;49.51
64053;BME280;50299;49.524;8.536;2023-05-02T09:24:23;101140.81;;;13.95;50.53
64053;BME280;50299;49.524;8.536;2023-05-02T09:27:01;101138.59;;;14.09;57.60
64053;BME280;50299;49.524;8.536;2023-05-02T09:29:38;101144.44;;;14.16;48.13
64053;BME280;50299;49.524;8.536;2023-05-02T09:32:06;101142.53;;;13.78;56.43
64053;BME280;50299;49.524;8.536;2023-05-02T09:34:33;101147.59;;;13.76;50.49
64053;BME280;50299;49.524;8.536;2023-05-02T09:37:00;101143.88;;;14.02;51.24
64053;BME280;50299;49.524;8.536;2023-05-02T09:39:30;101142.75;;;13.94;52.97
64053;BME280;50299;49.524;8.536;2023-05-02T09:42:01;101146.56;;;13.43;53.41
64053;BME280;50299;49.524;8.536;2023-05-02T09:44:37;101156.94;;;13.72;50.00
64053;BME280;50299;49.524;8.536;2023-05-02T09:47:04;101154.41;;;13.88;50.88
64053;BME280;50299;49.524;8.536;2023-05-02T09:49:44;101153.06;;;13.94;55.32
64053;BME280;50299;49.524;8.536;2023-05-02T09:52:13;101160.69;;;13.76;50.86
64053;BME280;50299;49.524;8.536;2023-05-02T09:54:40;101162.34;;;13.68;49.01
64053;BME280;50299;49.524;8.536;2023-05-02T09:57:09;101167.41;;;13.75;53.69
64053;BME280;50299;49.524;8.536;2023-05-02T09:59:55;101161.19;;;13.69;52.35
64053;BME280;50299;49.524;8.536;2023-05-02T10:02:48;101172.25;;;13.31;51.32
64053;BME280;50299;49.524;8.536;2023-05-02T10:05:17;101171.56;;;13.43;57.21
64053;BME280;50299;49.524;8.536;2023-05-02T10:07:48;101166.56;;;13.10;54.77
64053;BME280;50299;49.524;8.536;2023-05-02T10:10:22;101166.34;;;13.32;57.99
64053;BME280;50299;49.524;8.536;2023-05-02T10:12:56;101168.56;;;13.01;51.37
64053;BME280;50299;49.524;8.536;2023-05-02T10:15:27;101172.47;;;12.91;56.57
64053;BME280;50299;49.524;8.536;2023-05-02T10:17:59;101176.06;;;12.92;55.28
64053;BME280;50299;49.524;8.536;2023-05-02T10:20:34;101175.84;;;12.36;56.39
64053;BME280;50299;49.524;8.536;2023-05-02T10:23:02;101170.84;;;12.73;57.47
64053;BME280;50299;49.524;8.536;2023-05-02T10:25:35;101163.44;;;13.29;57.52
64053;BME280;50299;49.524;8.536;2023-05-02T10:28:02;101156.47;;;13.61;56.08
64053;BME280;50299;49.524;8.536;2023-05-02T10:30:38;101168.25;;;13.67;54.27
64053;BME280;50299;49.524;8.536;2023-05-02T10:33:07;101163.63;;;13.79;53.45
64053;BME280;50299;49.524;8.536;2023-05-02T10:35:35;101165.28;;;13.16;47.96
64053;BME280;50299;49.524;8.536;2023-05-02T10:38:02;101159.75;;;13.63;51.17
64053;BME280;50299;49.524;8.536;2023-05-02T10:40:32;101161.75;;;13.45;50.73
64053;BME280;50299;49.524;8.536;2023-05-02T10:42:59;101164.81;;;13.70;49.31
64053;BME280;50299;49.524;8.536;2023-05-02T10:45:34;101164.69;;;13.96;51.82
64053;BME280;50299;49.524;8.536;2023-05-02T10:48:14;101166.41;;;14.09;49.51
64053;BME280;50299;49.524;8.536;2023-05-02T10:50:45;101159.47;;;13.47;49.50
64053;BME280;50299;49.524;8.536;2023-05-02T10:58:45;101151.50;;;14.14;48.97
64053;BME280;50299;49.524;8.536;2023-05-02T11:06:32;101141.47;;;14.84;53.91
64053;BME280;50299;49.524;8.536;2023-05-02T11:11:45;101145.22;;;14.67;51.97
64053;BME280;50299;49.524;8.536;2023-05-02T11:17:08;101143.81;;;15.61;52.12
64053;BME280;50299;49.524;8.536;2023-05-02T11:24:50;101148.75;;;16.41;50.62
64053;BME280;50299;49.524;8.536;2023-05-02T11:27:38;101159.97;;;16.81;49.40
64053;BME280;50299;49.524;8.536;2023-05-02T11:30:38;101153.97;;;16.67;46.49
64053;BME280;50299;49.524;8.536;2023-05-02T11:33:10;101151.97;;;16.15;46.24
64053;BME280;50299;49.524;8.536;2023-05-02T11:35:44;101162.91;;;16.60;44.08
64053;BME280;50299;49.524;8.536;2023-05-02T11:38:14;101164.88;;;16.72;46.24
64053;BME280;50299;49.524;8.536;2023-05-02T11:40:48;101167.19;;;16.70;38.65
64053;BME280;50299;49.524;8.536;2023-05-02T11:43:18;101165.31;;;16.21;40.06
64053;BME280;50299;49.524;8.536;2023-05-02T11:45:45;101154.63;;;16.23;43.82
64053;BME280;50299;49.524;8.536;2023-05-02T11:48:22;101153.91;;;16.39;50.01
64053;BME280;50299;49.524;8.536;2023-05-02T11:51:01;101151.03;;;16.75;48.76
64053;BME280;50299;49.524;8.536;2023-05-02T11:53:39;101154.53;;;17.00;54.45
64053;BME280;50299;49.524;8.536;2023-05-02T11:56:06;101163.66;;;17.13;43.20
64053;BME280;50299;49.524;8.536;2023-05-02T11:58:37;101148.28;;;16.91;42.66
64053;BME280;50299;49.524;8.536;2023-05-02T12:01:11;101152.09;;;16.99;50.88
64053;BME280;50299;49.524;8.536;2023-05-02T12:03:49;101153.56;;;16.81;49.71
64053;BME280;50299;49.524;8.536;2023-05-02T12:06:21;101145.56;;;15.90;46.55
64053;BME280;50299;49.524;8.536;2023-05-02T12:09:26;101148.16;;;15.37;46.57
64053;BME280;50299;49.524;8.536;2023-05-02T12:14:28;101152.69;;;15.29;55.11
64053;BME280;50299;49.524;8.536;2023-05-02T12:16:59;101153.47;;;14.97;54.67
64053;BME280;50299;49.524;8.536;2023-05-02T12:19:26;101153.78;;;15.62;49.62
64053;BME280;50299;49.524;8.536;2023-05-02T12:21:53;101154.63;;;16.11;52.01
64053;BME280;50299;49.524;8.536;2023-05-02T12:24:25;101155.44;;;16.12;47.59
64053;BME280;50299;49.524;8.536;2023-05-02T12:27:11;101163.47;;;16.25;45.95
64053;BME280;50299;49.524;8.536;2023-05-02T12:29:43;101161.47;;;15.89;45.04
64053;BME280;50299;49.524;8.536;2023-05-02T12:32:13;101157.00;;;15.39;55.84
64053;BME280;50299;49.524;8.536;2023-05-02T12:34:40;101164.53;;;15.26;41.07
64053;BME280;50299;49.524;8.536;2023-05-02T12:37:07;101162.66;;;15.18;47.44
64053;BME280;50299;49.524;8.536;2023-05-02T12:39:39;101159.41;;;15.28;50.23
64053;BME280;50299;49.524;8.536;2023-05-02T12:42:11;101160.75;;;15.56;49.58
64053;BME280;50299;49.524;8.536;2023-05-02T12:44:47;101152.06;;;15.69;43.83
64053;BME280;50299;49.524;8.536;2023-05-02T12:47:19;101157.75;;;15.85;56.34
64053;BME280;50299;49.524;8.536;2023-05-02T12:52:45;101152.75;;;16.27;52.51
64053;BME280;50299;49.524;8.536;2023-05-02T12:55:29;101153.66;;;15.58;47.32
64053;BME280;50299;49.524;8.536;2023-05-02T12:58:04;101152.72;;;15.54;49.48
64053;BME280;50299;49.524;8.536;2023-05-02T13:00:37;101147.88;;;15.75;52.54
64053;BME280;50299;49.524;8.536;2023-05-02T13:03:08;101151.91;;;15.53;44.99
64053;BME280;50299;49.524;8.536;2023-05-02T13:05:38;101138.09;;;15.57;47.84
64053;BME280;50299;49.524;8.536;2023-05-02T13:08:13;101148.50;;;16.06;54.31
64053;BME280;50299;49.524;8.536;2023-05-02T13:10:39;101149.47;;;16.50;54.32
64053;BME280;50299;49.524;8.536;2023-05-02T13:13:06;101150.13;;;16.59;48.22
64053;BME280;50299;49.524;8.536;2023-05-02T13:15:33;101147.44;;;16.75;51.90
64053;BME280;50299;49.524;8.536;2023-05-02T13:17:59;101150.13;;;16.71;52.75
64053;BME280;50299;49.524;8.536;2023-05-02T13:20:27;101150.28;;;16.91;48.24
64053;BME280;50299;49.524;8.536;2023-05-02T13:22:54;101156.38;;;17.24;53.05
64053;BME280;50299;49.524;8.536;2023-05-02T13:25:23;101140.03;;;17.70;52.04
64053;BME280;50299;49.524;8.536;2023-05-02T13:27:58;101134.31;;;18.14;53.76
64053;BME280;50299;49.524;8.536;2023-05-02T13:30:28;101138.31;;;17.82;43.81
64053;BME280;50299;49.524;8.536;2023-05-02T13:33:04;101130.78;;;18.17;51.32
64053;BME280;50299;49.524;8.536;2023-05-02T13:35:40;101133.63;;;18.37;43.09
64053;BME280;50299;49.524;8.536;2023-05-02T13:38:10;101126.41;;;18.55;43.41
64053;BME280;50299;49.524;8.536;2023-05-02T13:40:39;101122.44;;;18.56;44.29
64053;BME280;50299;49.524;8.536;2023-05-02T13:43:06;101127.50;;;18.31;42.04
64053;BME280;50299;49.524;8.536;2023-05-02T13:45:33;101129.00;;;18.44;46.93
64053;BME280;50299;49.524;8.536;2023-05-02T13:48:08;101131.94;;;18.71;44.20
64053;BME280;50299;49.524;8.536;2023-05-02T13:50:38;101132.38;;;18.54;44.55
64053;BME280;50299;49.524;8.536;2023-05-02T13:53:04;101124.13;;;18.41;39.55
64053;BME280;50299;49.524;8.536;2023-05-02T13:55:34;101127.06;;;17.18;43.33
64053;BME280;50299;49.524;8.536;2023-05-02T13:58:01;101129.75;;;17.74;36.71
64053;BME280;50299;49.524;8.536;2023-05-02T14:00:32;101129.13;;;17.81;34.72
64053;BME280;50299;49.524;8.536;2023-05-02T14:02:59;101134.75;;;18.16;39.51